This is the latest recevied weather packets stored in our database for station/object KH2PM. If no packets are shown the sender has not sent any weather packets the latest 10 day(s).
| Time | Temp. | Humidity | Pressure | Rain* | Wind** | Luminosity | Snow |
|---|---|---|---|---|---|---|---|
| 1777506604 | 23.33° C | 73% | 1007.9 hPa | 0 mm | - | - | - |
| 1777503304 | 24.44° C | 65% | 1007.9 hPa | 0 mm | - | - | - |
| 1777503009 | 24.44° C | 66% | 1008 hPa | 0 mm | - | - | - |
| 1777502704 | 25° C | 64% | 1008.1 hPa | 0 mm | - | - | - |
| 1777502405 | 25° C | 64% | 1008 hPa | 0 mm | - | - | - |
| 1777501806 | 25° C | 64% | 1008 hPa | 0 mm | - | - | - |
| 1777500904 | 25° C | 63% | 1008.5 hPa | 0 mm | - | - | - |
| 1777498504 | 25.56° C | 63% | 1008.6 hPa | 0 mm | - | - | - |
| 1777479306 | 19.44° C | 81% | 1012.9 hPa | 0 mm | - | - | - |
| 1777478405 | 19.44° C | 81% | 1013.1 hPa | 0 mm | - | - | - |
| 1777475706 | 18.89° C | 82% | 1014 hPa | 0 mm | - | - | - |
| 1777473005 | 18.89° C | 83% | 1014.2 hPa | 0 mm | - | - | - |
| 1777470003 | 17.78° C | 85% | 1014.6 hPa | 0 mm | - | - | - |
| 1777469103 | 17.22° C | 87% | 1014.7 hPa | 0 mm | - | - | - |
| 1777468507 | 17.22° C | 87% | 1015 hPa | 0 mm | - | - | - |
| 1777468205 | 17.22° C | 87% | 1015.1 hPa | 0 mm | - | - | - |
| 1777467605 | 16.67° C | 88% | 1015.2 hPa | 0 mm | - | - | - |
| 1777466104 | 16.11° C | 89% | 1015.4 hPa | 0 mm | - | - | - |
| 1777464604 | 15.56° C | 92% | 1015.3 hPa | 0 mm | - | - | - |
| 1777464005 | 15.56° C | 91% | 1015.6 hPa | 0 mm | - | - | - |
| 1777463106 | 15.56° C | 92% | 1015.7 hPa | 0 mm | - | - | - |
| 1777462804 | 15° C | 93% | 1015.7 hPa | 0 mm | - | - | - |
| 1777461604 | 15° C | 93% | 1015.7 hPa | 0 mm | - | - | - |
| 1777460704 | 14.44° C | 95% | 1015.7 hPa | 0 mm | - | - | - |
| 1777460104 | 14.44° C | 94% | 1015.5 hPa | 0 mm | - | - | - |
* Rain latest hour (hover to see other rain measurements)
** Current wind speed in m/s (hover to see current wind gust speed)